Time;durP1;ratioP1;P1;durP2;ratioP2;P2;SDS_P1;SDS_P2;PMS_P1;PMS_P2;Temp;Humidity;BMP_temperature;BMP_pressure;BME280_temperature;BME280_humidity;BME280_pressure;Samples;Min_cycle;Max_cycle;Signal;HPM_P1;HPM_P2
2023/11/13 00:03:14;;;;;;;11.15;7.47;;;15.80;72.20;;;;;;10416462;28;20086;-57
2023/11/13 00:08:15;;;;;;;10.27;6.85;;;15.80;72.20;;;;;;10415539;28;20029;-58
2023/11/13 00:13:17;;;;;;;8.10;6.68;;;15.70;71.80;;;;;;10415849;28;20089;-58
2023/11/13 00:18:17;;;;;;;7.93;6.13;;;15.70;71.90;;;;;;10415279;28;20025;-58
2023/11/13 00:23:18;;;;;;;7.07;6.10;;;15.70;71.90;;;;;;10415294;28;20026;-57
2023/11/13 00:28:19;;;;;;;10.40;6.43;;;15.70;71.90;;;;;;10415001;28;20443;-57
2023/11/13 00:33:20;;;;;;;9.25;6.22;;;15.70;71.80;;;;;;10414838;28;20523;-58
2023/11/13 00:38:21;;;;;;;10.50;6.38;;;15.70;71.80;;;;;;10414600;28;20369;-58
2023/11/13 00:43:22;;;;;;;9.52;6.80;;;15.70;71.80;;;;;;10414439;28;20424;-57
2023/11/13 00:48:23;;;;;;;9.25;6.20;;;15.70;71.90;;;;;;10414261;28;20033;-58
2023/11/13 00:53:24;;;;;;;9.68;6.55;;;15.70;71.90;;;;;;10413755;28;20036;-58
2023/11/13 00:58:26;;;;;;;8.48;6.50;;;15.60;71.90;;;;;;10414000;28;20030;-58
2023/11/13 01:03:27;;;;;;;8.45;6.07;;;15.60;72.10;;;;;;10413706;28;20034;-57
2023/11/13 01:08:28;;;;;;;6.85;4.45;;;15.60;71.80;;;;;;10413329;28;20079;-57
2023/11/13 01:13:28;;;;;;;8.23;5.32;;;15.60;71.90;;;;;;10413339;28;20088;-57
2023/11/13 01:18:29;;;;;;;8.00;6.43;;;15.60;72.00;;;;;;10411779;28;20041;-57
2023/11/13 01:23:30;;;;;;;8.40;5.97;;;15.60;71.90;;;;;;10413027;28;20033;-57
2023/11/13 01:28:31;;;;;;;7.63;5.60;;;15.50;72.10;;;;;;10411154;28;20496;-57
2023/11/13 01:33:32;;;;;;;7.07;5.05;;;15.50;71.60;;;;;;10412708;28;20045;-57
2023/11/13 01:38:33;;;;;;;6.53;4.82;;;15.50;72.00;;;;;;10412296;28;20026;-58
2023/11/13 01:43:34;;;;;;;9.13;5.75;;;15.50;72.00;;;;;;10412499;28;20037;-56
2023/11/13 01:48:35;;;;;;;8.38;5.57;;;15.50;72.20;;;;;;10411626;28;20033;-57
2023/11/13 01:53:35;;;;;;;7.68;5.90;;;15.50;71.90;;;;;;10409782;28;20037;-57
2023/11/13 01:58:37;;;;;;;6.93;4.88;;;15.50;71.90;;;;;;10410305;28;20032;-58
2023/11/13 02:03:40;;;;;;;5.45;4.35;;;15.50;71.80;;;;;;10411015;28;20104;-58
2023/11/13 02:08:40;;;;;;;6.57;5.40;;;15.40;71.50;;;;;;10410975;28;20121;-58
2023/11/13 02:13:45;;;;;;;7.88;5.32;;;15.40;71.50;;;;;;10411157;28;20025;-58
2023/11/13 02:18:46;;;;;;;8.30;4.38;;;15.50;71.80;;;;;;10411096;28;20030;-58
2023/11/13 02:23:49;;;;;;;5.53;4.65;;;15.40;71.80;;;;;;10410827;28;20649;-58
2023/11/13 02:28:50;;;;;;;6.55;4.80;;;15.40;71.70;;;;;;10408653;28;20117;-57
2023/11/13 02:33:50;;;;;;;6.13;4.38;;;15.40;71.70;;;;;;10410388;28;20030;-58
2023/11/13 02:38:51;;;;;;;5.80;4.13;;;15.40;71.80;;;;;;10409889;28;20033;-58
2023/11/13 02:43:52;;;;;;;5.80;4.63;;;15.40;71.70;;;;;;10408720;28;20037;-58
2023/11/13 02:48:52;;;;;;;6.25;4.40;;;15.40;71.80;;;;;;10409830;28;20030;-57
2023/11/13 02:53:54;;;;;;;6.57;4.88;;;15.40;71.90;;;;;;10409673;28;20378;-56
2023/11/13 02:58:56;;;;;;;5.80;4.15;;;15.40;72.00;;;;;;10409595;28;20033;-56
2023/11/13 03:03:57;;;;;;;7.75;4.22;;;15.40;72.10;;;;;;10409969;28;20400;-56
2023/11/13 03:08:59;;;;;;;6.82;4.35;;;15.30;72.00;;;;;;10408553;28;20041;-56
2023/11/13 03:14:00;;;;;;;5.03;3.72;;;15.30;72.10;;;;;;10409484;28;20036;-57
2023/11/13 03:19:00;;;;;;;5.57;4.22;;;15.30;72.10;;;;;;10408968;28;20041;-57
2023/11/13 03:24:01;;;;;;;7.63;3.80;;;15.30;72.30;;;;;;10409002;28;20087;-56
2023/11/13 03:29:02;;;;;;;5.28;3.90;;;15.30;72.10;;;;;;10409120;28;20030;-56
2023/11/13 03:34:02;;;;;;;4.38;3.42;;;15.30;72.20;;;;;;10409095;28;20037;-56
2023/11/13 03:39:03;;;;;;;6.15;4.47;;;15.30;72.20;;;;;;10408345;28;20473;-56
2023/11/13 03:44:05;;;;;;;7.93;4.40;;;15.30;72.10;;;;;;10408642;28;20033;-56
2023/11/13 03:49:06;;;;;;;6.13;4.03;;;15.30;72.10;;;;;;10407845;28;20038;-56
2023/11/13 03:54:06;;;;;;;6.45;3.20;;;15.30;72.00;;;;;;10408170;28;20030;-58
2023/11/13 03:59:07;;;;;;;4.47;3.38;;;15.30;72.10;;;;;;10408128;28;20116;-57
2023/11/13 04:04:09;;;;;;;4.47;3.13;;;15.20;72.10;;;;;;10408136;28;20033;-56
2023/11/13 04:09:10;;;;;;;4.65;3.20;;;15.20;72.20;;;;;;10407137;28;20022;-56
2023/11/13 04:14:11;;;;;;;6.10;4.07;;;15.30;72.40;;;;;;10407890;28;20046;-56
2023/11/13 04:19:12;;;;;;;4.35;3.15;;;15.20;72.20;;;;;;10407672;28;20037;-56
2023/11/13 04:24:13;;;;;;;4.05;2.75;;;15.20;72.10;;;;;;10407662;28;20522;-55
2023/11/13 04:29:13;;;;;;;4.93;3.50;;;15.20;72.20;;;;;;10420855;28;20056;-56
2023/11/13 04:34:14;;;;;;;4.97;3.28;;;15.20;72.30;;;;;;10419903;28;20079;-55
2023/11/13 04:39:15;;;;;;;9.57;3.00;;;15.20;72.10;;;;;;10413217;28;20025;-57
2023/11/13 04:44:16;;;;;;;4.45;3.42;;;15.30;72.80;;;;;;10413628;28;20501;-54
2023/11/13 04:49:16;;;;;;;5.82;3.05;;;15.30;73.10;;;;;;10412143;28;20067;-56
2023/11/13 04:54:18;;;;;;;5.03;3.20;;;15.30;73.50;;;;;;10412845;28;20025;-56
2023/11/13 04:59:19;;;;;;;3.78;2.63;;;15.30;73.60;;;;;;10412094;28;20021;-55
2023/11/13 05:04:20;;;;;;;5.63;3.30;;;15.30;73.40;;;;;;10410328;28;20633;-54
2023/11/13 05:09:21;;;;;;;5.88;3.28;;;15.30;73.40;;;;;;10408037;28;20030;-54
2023/11/13 05:14:21;;;;;;;3.85;2.60;;;15.20;73.30;;;;;;10410253;28;20076;-54
2023/11/13 05:19:23;;;;;;;3.85;3.13;;;15.20;73.30;;;;;;10408643;28;20036;-55
2023/11/13 05:24:23;;;;;;;3.88;2.70;;;15.20;73.30;;;;;;10409040;28;20037;-54
2023/11/13 05:29:26;;;;;;;4.05;2.72;;;15.20;73.30;;;;;;10409188;28;20593;-54
2023/11/13 05:34:26;;;;;;;4.63;2.95;;;15.20;73.20;;;;;;10408810;28;20452;-55
2023/11/13 05:39:27;;;;;;;6.32;3.53;;;15.10;73.20;;;;;;10411147;28;20024;-55
2023/11/13 05:44:28;;;;;;;3.67;2.85;;;15.20;73.20;;;;;;10412506;28;20036;-56
2023/11/13 05:49:30;;;;;;;3.60;2.42;;;15.40;72.70;;;;;;10412035;28;20033;-55
2023/11/13 05:54:31;;;;;;;4.13;2.55;;;15.70;71.90;;;;;;10412300;28;20649;-56
2023/11/13 05:59:32;;;;;;;4.47;2.45;;;15.90;71.00;;;;;;10411647;28;20029;-56
2023/11/13 06:04:35;;;;;;;4.85;2.83;;;16.20;70.30;;;;;;10411770;28;20026;-56
2023/11/13 06:09:38;;;;;;;14.70;3.10;;;16.40;69.50;;;;;;10411058;28;20044;-56
2023/11/13 06:14:39;;;;;;;9.95;2.88;;;16.60;69.40;;;;;;10411956;28;20493;-56
2023/11/13 06:19:40;;;;;;;6.38;2.25;;;16.90;69.00;;;;;;10409902;28;20107;-56
2023/11/13 06:24:41;;;;;;;8.98;2.33;;;17.10;68.90;;;;;;10410871;28;20091;-56
2023/11/13 06:29:41;;;;;;;6.03;2.80;;;17.00;71.00;;;;;;10420786;28;20089;-56
2023/11/13 06:34:42;;;;;;;8.77;2.92;;;17.20;69.60;;;;;;10412745;28;20026;-56
2023/11/13 06:39:44;;;;;;;8.32;2.97;;;17.30;69.40;;;;;;10410340;28;20388;-56
2023/11/13 06:44:44;;;;;;;11.30;3.47;;;17.30;69.30;;;;;;10409857;28;20165;-56
2023/11/13 06:49:45;;;;;;;9.73;2.83;;;17.50;69.10;;;;;;10407419;28;20037;-56
2023/11/13 06:54:46;;;;;;;17.23;3.53;;;17.60;68.50;;;;;;10408662;28;20038;-54
2023/11/13 06:59:47;;;;;;;17.48;3.47;;;17.70;69.10;;;;;;10409142;28;20033;-56
2023/11/13 07:04:48;;;;;;;17.45;3.33;;;17.70;69.80;;;;;;10407856;28;20041;-57
2023/11/13 07:09:49;;;;;;;11.02;3.65;;;17.70;69.70;;;;;;10404827;28;20592;-58
2023/11/13 07:14:51;;;;;;;9.07;2.70;;;17.70;69.50;;;;;;10407167;28;20392;-57
2023/11/13 07:19:52;;;;;;;13.75;3.92;;;17.80;69.40;;;;;;10408333;28;20599;-57
2023/11/13 07:24:53;;;;;;;10.82;3.08;;;17.60;69.40;;;;;;10408334;28;20021;-58
2023/11/13 07:29:54;;;;;;;14.68;4.53;;;17.70;69.10;;;;;;10406522;28;20037;-57
2023/11/13 07:34:55;;;;;;;13.48;3.78;;;17.80;69.00;;;;;;10405977;28;20080;-56
2023/11/13 07:39:56;;;;;;;16.10;4.32;;;17.70;69.20;;;;;;10407965;28;20040;-58
2023/11/13 07:44:58;;;;;;;8.85;3.17;;;17.70;69.40;;;;;;10407461;28;20222;-57
2023/11/13 07:49:59;;;;;;;10.48;3.60;;;17.70;69.80;;;;;;10407521;28;20120;-57
2023/11/13 07:55:01;;;;;;;17.17;4.82;;;17.70;70.60;;;;;;10406781;28;20040;-56
2023/11/13 08:00:03;;;;;;;10.07;2.85;;;17.80;69.60;;;;;;10409125;28;20033;-57
2023/11/13 08:05:05;;;;;;;9.63;3.72;;;17.70;69.80;;;;;;10414443;28;20116;-57
2023/11/13 08:10:13;;;;;;;10.32;3.28;;;17.60;70.20;;;;;;10414170;28;20026;-58
2023/11/13 08:15:14;;;;;;;18.50;3.30;;;17.60;70.50;;;;;;10413619;28;20021;-59
2023/11/13 08:20:15;;;;;;;11.23;2.60;;;17.50;70.70;;;;;;10412945;28;20030;-59
2023/11/13 08:25:17;;;;;;;11.85;3.03;;;17.50;70.80;;;;;;10413655;28;20388;-57
2023/11/13 08:30:22;;;;;;;7.82;2.88;;;17.50;70.90;;;;;;10428118;28;20068;-56
2023/11/13 08:35:23;;;;;;;7.03;2.88;;;17.50;70.90;;;;;;10415520;28;20025;-55
2023/11/13 08:40:23;;;;;;;9.05;3.13;;;17.60;70.80;;;;;;10413195;28;20032;-57
2023/11/13 08:45:26;;;;;;;7.65;3.55;;;17.60;70.70;;;;;;10412925;28;20109;-58
2023/11/13 08:50:27;;;;;;;11.10;2.47;;;17.50;70.80;;;;;;10413681;28;20030;-57
2023/11/13 08:55:28;;;;;;;8.90;2.10;;;17.60;70.30;;;;;;10411715;28;20495;-56
2023/11/13 09:00:40;;;;;;;14.80;2.67;;;17.80;69.60;;;;;;10413006;28;20112;-57
2023/11/13 09:05:41;;;;;;;17.58;3.38;;;17.80;69.50;;;;;;10413160;28;20075;-56
2023/11/13 09:10:44;;;;;;;9.45;2.70;;;18.20;68.50;;;;;;10410967;28;20026;-56
2023/11/13 09:15:45;;;;;;;12.43;2.60;;;18.30;68.00;;;;;;10411216;28;20029;-57
2023/11/13 09:20:46;;;;;;;6.13;2.25;;;18.40;67.80;;;;;;10410959;28;20056;-56
2023/11/13 09:25:46;;;;;;;10.05;2.38;;;18.40;67.70;;;;;;10412053;28;20044;-57
2023/11/13 09:30:47;;;;;;;12.63;2.80;;;18.50;67.70;;;;;;10427439;28;20699;-57
2023/11/13 09:35:48;;;;;;;9.98;4.65;;;18.40;67.90;;;;;;10409852;28;20025;-57
2023/11/13 09:40:53;;;;;;;7.30;1.90;;;18.40;67.80;;;;;;10411824;28;20415;-57
2023/11/13 09:45:56;;;;;;;5.53;2.13;;;18.50;67.80;;;;;;10413627;28;20464;-55
2023/11/13 09:50:57;;;;;;;15.60;2.25;;;18.50;68.00;;;;;;10443089;28;20504;-55
2023/11/13 09:55:59;;;;;;;8.68;2.63;;;18.50;68.00;;;;;;10410307;28;20029;-57
2023/11/13 10:01:00;;;;;;;6.70;2.13;;;18.50;68.10;;;;;;10408899;28;20036;-56
2023/11/13 10:06:02;;;;;;;6.60;2.22;;;18.50;68.30;;;;;;10441804;28;20485;-57
2023/11/13 10:11:03;;;;;;;9.27;2.22;;;18.40;68.40;;;;;;10409473;28;20061;-56
2023/11/13 10:16:22;;;;;;;11.00;2.33;;;18.40;68.50;;;;;;10408236;28;20021;-57
2023/11/13 10:21:33;;;;;;;6.43;1.98;;;18.40;68.50;;;;;;10410173;28;20041;-57
2023/11/13 10:26:34;;;;;;;14.07;3.83;;;18.30;68.70;;;;;;10408839;28;20064;-56
2023/11/13 10:31:44;;;;;;;9.02;2.85;;;18.30;68.90;;;;;;10422752;28;20033;-58
2023/11/13 10:36:45;;;;;;;9.68;1.92;;;18.30;68.30;;;;;;10409604;28;20547;-57
2023/11/13 10:41:46;;;;;;;6.72;2.15;;;18.30;68.30;;;;;;10412422;28;20036;-58
2023/11/13 10:46:46;;;;;;;16.63;4.00;;;18.20;68.60;;;;;;10408942;28;20365;-59
2023/11/13 10:51:49;;;;;;;14.25;3.08;;;18.20;68.90;;;;;;10408678;28;20029;-57
2023/11/13 10:56:50;;;;;;;23.83;3.00;;;18.20;68.80;;;;;;10410668;28;20033;-58
2023/11/13 11:01:56;;;;;;;14.70;3.03;;;18.20;69.00;;;;;;10407457;28;20042;-57
2023/11/13 11:06:58;;;;;;;11.05;3.42;;;18.20;68.80;;;;;;10406947;28;20057;-58
2023/11/13 11:11:59;;;;;;;11.27;2.60;;;18.20;68.90;;;;;;10408149;28;20124;-58
2023/11/13 11:17:15;;;;;;;22.63;3.25;;;18.20;69.30;;;;;;10407647;28;20036;-58
2023/11/13 11:22:44;;;;;;;14.48;3.08;;;18.20;69.30;;;;;;10406988;28;20037;-58
2023/11/13 11:27:46;;;;;;;10.80;2.38;;;18.10;69.60;;;;;;10406831;28;20087;-57
2023/11/13 11:32:56;;;;;;;15.57;2.85;;;18.10;70.20;;;;;;10420855;28;20378;-58
2023/11/13 11:38:28;;;;;;;9.82;2.45;;;18.10;70.80;;;;;;10414713;28;20029;-56
2023/11/13 11:43:33;;;;;;;13.40;2.35;;;18.20;70.40;;;;;;10415822;28;20029;-56
2023/11/13 11:48:35;;;;;;;15.55;3.40;;;18.10;70.30;;;;;;10415877;28;20471;-58
2023/11/13 11:53:36;;;;;;;12.88;2.55;;;18.10;70.20;;;;;;10413148;28;20021;-56
2023/11/13 11:58:37;;;;;;;14.80;3.20;;;18.00;70.40;;;;;;10414907;28;20392;-58
2023/11/13 12:03:38;;;;;;;8.68;3.33;;;18.00;70.70;;;;;;10414506;28;20040;-56
2023/11/13 12:08:40;;;;;;;11.10;2.50;;;18.00;70.40;;;;;;10413408;28;20037;-57
2023/11/13 12:13:42;;;;;;;11.50;2.38;;;18.10;70.00;;;;;;10411710;28;20029;-57
2023/11/13 12:18:43;;;;;;;9.70;1.65;;;18.10;69.90;;;;;;10414561;28;20030;-57
2023/11/13 12:23:47;;;;;;;10.02;2.35;;;18.10;70.00;;;;;;10414687;28;20457;-58
2023/11/13 12:28:49;;;;;;;8.98;1.85;;;18.00;70.30;;;;;;10417216;28;20017;-57
2023/11/13 12:33:50;;;;;;;8.48;1.98;;;18.00;70.00;;;;;;10424042;28;20026;-56
2023/11/13 12:38:51;;;;;;;8.88;2.08;;;18.00;69.80;;;;;;10430407;28;20517;-57
2023/11/13 12:43:52;;;;;;;12.75;3.22;;;17.90;70.00;;;;;;10413842;28;20025;-56
2023/11/13 12:49:00;;;;;;;19.80;2.75;;;17.90;70.20;;;;;;10410656;28;20033;-57
2023/11/13 12:54:01;;;;;;;15.82;2.55;;;17.80;70.60;;;;;;10413707;28;20060;-58
2023/11/13 12:59:02;;;;;;;16.17;3.70;;;18.00;70.00;;;;;;10416225;28;20423;-57
2023/11/13 13:04:05;;;;;;;18.73;3.47;;;17.90;69.90;;;;;;10412589;28;20029;-57
2023/11/13 13:09:06;;;;;;;13.70;2.03;;;18.00;70.00;;;;;;10412101;28;20487;-57
2023/11/13 13:14:08;;;;;;;11.95;3.08;;;17.90;70.20;;;;;;10412777;28;20033;-57
2023/11/13 13:19:09;;;;;;;22.48;3.33;;;17.90;70.50;;;;;;10412478;28;20029;-56
2023/11/13 13:24:10;;;;;;;27.33;4.20;;;18.00;71.40;;;;;;10388183;28;20041;-56
2023/11/13 13:29:11;;;;;;;14.55;2.90;;;18.00;72.00;;;;;;10406253;28;20488;-57
2023/11/13 13:34:13;;;;;;;21.75;3.92;;;18.00;72.80;;;;;;10413921;28;20041;-56
2023/11/13 13:39:16;;;;;;;19.58;3.42;;;18.00;73.50;;;;;;10411668;28;20057;-56
2023/11/13 13:44:17;;;;;;;13.70;2.90;;;17.90;73.50;;;;;;10411328;28;20381;-56
2023/11/13 13:49:19;;;;;;;20.92;4.07;;;17.80;73.80;;;;;;10410941;28;20033;-57
2023/11/13 13:54:22;;;;;;;22.58;3.22;;;17.80;73.80;;;;;;10412122;28;20037;-57
2023/11/13 13:59:24;;;;;;;21.95;4.18;;;17.80;74.40;;;;;;10409437;28;20029;-55
2023/11/13 14:04:25;;;;;;;17.83;4.20;;;17.80;74.30;;;;;;10410220;28;20037;-57
2023/11/13 14:09:26;;;;;;;18.95;3.85;;;17.80;74.20;;;;;;10410494;28;20078;-58
2023/11/13 14:14:28;;;;;;;26.23;4.38;;;17.80;74.40;;;;;;10409861;28;20572;-57
2023/11/13 14:19:29;;;;;;;20.35;3.55;;;17.90;76.30;;;;;;10409583;28;20029;-56
2023/11/13 14:24:29;;;;;;;20.30;3.33;;;18.20;73.50;;;;;;10408045;28;20491;-58
2023/11/13 14:29:33;;;;;;;29.23;4.43;;;18.10;74.10;;;;;;10411472;28;20053;-57
2023/11/13 14:34:34;;;;;;;25.33;4.07;;;17.90;74.70;;;;;;10412729;28;20061;-59
2023/11/13 14:39:34;;;;;;;22.70;4.68;;;17.90;76.00;;;;;;10408348;28;20037;-57
2023/11/13 14:44:37;;;;;;;26.55;4.25;;;17.80;75.00;;;;;;10409503;28;20402;-57
2023/11/13 14:49:38;;;;;;;47.05;7.32;;;17.80;75.50;;;;;;10410133;28;20433;-57
2023/11/13 14:54:39;;;;;;;25.25;4.72;;;17.70;75.80;;;;;;10408817;28;20030;-59
2023/11/13 14:59:40;;;;;;;24.30;5.22;;;17.80;75.70;;;;;;10408311;28;20033;-57
2023/11/13 15:04:41;;;;;;;46.85;5.32;;;17.80;75.80;;;;;;10408815;28;20029;-59
2023/11/13 15:09:42;;;;;;;26.88;5.50;;;17.80;76.50;;;;;;10407046;28;20045;-57
2023/11/13 15:14:43;;;;;;;39.13;5.82;;;17.80;76.50;;;;;;10408907;28;20041;-58
2023/11/13 15:19:43;;;;;;;42.05;6.20;;;17.60;75.80;;;;;;10408477;28;20029;-58
2023/11/13 15:24:44;;;;;;;26.52;6.85;;;17.70;75.00;;;;;;10407629;28;20029;-57
2023/11/13 15:29:46;;;;;;;54.13;8.80;;;17.90;74.80;;;;;;10408779;28;20053;-59
2023/11/13 15:34:48;;;;;;;38.53;34.78;;;18.10;73.70;;;;;;10415291;28;20048;-60
2023/11/13 15:39:49;;;;;;;49.50;34.08;;;18.10;72.60;;;;;;10415769;28;20033;-59
2023/11/13 15:44:50;;;;;;;25.17;15.80;;;18.20;72.70;;;;;;10408638;28;20065;-56
2023/11/13 15:49:51;;;;;;;20.65;14.23;;;18.30;74.40;;;;;;10408457;28;20017;-58
2023/11/13 15:54:52;;;;;;;24.40;14.30;;;18.40;74.20;;;;;;10409177;28;20033;-59
2023/11/13 15:59:52;;;;;;;33.45;13.95;;;18.50;74.70;;;;;;10407943;28;20480;-58
2023/11/13 16:04:56;;;;;;;25.55;13.60;;;18.50;74.30;;;;;;10407720;28;20025;-59
2023/11/13 16:09:57;;;;;;;18.80;13.68;;;18.30;74.40;;;;;;10406548;28;20029;-56
2023/11/13 16:14:59;;;;;;;31.23;14.32;;;18.20;74.60;;;;;;10403206;28;20037;-58
2023/11/13 16:20:00;;;;;;;26.67;14.23;;;18.20;74.50;;;;;;10405345;28;20546;-57
2023/11/13 16:25:00;;;;;;;26.17;14.07;;;18.10;74.90;;;;;;10414661;28;20038;-58
2023/11/13 16:30:01;;;;;;;24.02;13.13;;;18.00;75.90;;;;;;10417711;28;20050;-57
2023/11/13 16:35:06;;;;;;;27.52;13.90;;;17.80;76.20;;;;;;10411309;28;20040;-57
2023/11/13 16:40:07;;;;;;;23.05;15.27;;;17.80;76.30;;;;;;10411423;28;20083;-57
2023/11/13 16:45:12;;;;;;;24.33;12.93;;;17.80;76.00;;;;;;10410556;28;20029;-55
2023/11/13 16:50:15;;;;;;;21.13;12.15;;;17.80;76.10;;;;;;10409171;28;20034;-55
2023/11/13 16:55:17;;;;;;;22.40;13.10;;;17.80;76.50;;;;;;10410468;28;20056;-57
2023/11/13 17:00:19;;;;;;;21.52;12.15;;;17.70;76.50;;;;;;10404778;28;20033;-57
2023/11/13 17:05:20;;;;;;;31.40;15.30;;;17.60;76.30;;;;;;10410680;28;20064;-58
2023/11/13 17:10:27;;;;;;;21.80;12.80;;;17.50;76.40;;;;;;10411093;28;20112;-59
2023/11/13 17:15:29;;;;;;;20.98;16.80;;;17.50;76.40;;;;;;10406843;28;20040;-60
2023/11/13 17:20:29;;;;;;;14.52;12.50;;;17.40;76.50;;;;;;10402823;28;20076;-59
2023/11/13 17:25:30;;;;;;;20.25;15.35;;;17.40;76.50;;;;;;10414772;28;20078;-59
2023/11/13 17:30:31;;;;;;;19.80;12.50;;;17.40;76.60;;;;;;10413405;28;20505;-57
2023/11/13 17:35:31;;;;;;;20.60;12.43;;;17.30;76.50;;;;;;10404553;28;20040;-58
2023/11/13 17:40:32;;;;;;;20.25;12.00;;;17.30;77.70;;;;;;10411791;28;20080;-58
2023/11/13 17:45:35;;;;;;;89.22;32.95;;;17.40;77.50;;;;;;10412357;28;20075;-58
2023/11/13 17:50:35;;;;;;;23.10;11.20;;;17.50;77.50;;;;;;10411891;28;20423;-58
2023/11/13 17:55:36;;;;;;;22.45;11.05;;;17.40;77.60;;;;;;10417292;28;20080;-58
2023/11/13 18:00:38;;;;;;;25.80;11.77;;;17.20;77.90;;;;;;10410657;28;20029;-57
2023/11/13 18:05:39;;;;;;;24.13;11.25;;;17.20;77.50;;;;;;10411510;28;20598;-58
2023/11/13 18:10:41;;;;;;;27.77;11.50;;;17.20;77.70;;;;;;10410844;28;20056;-58
2023/11/13 18:15:42;;;;;;;19.02;10.15;;;17.10;77.70;;;;;;10411491;28;20060;-59
2023/11/13 18:20:44;;;;;;;27.35;10.15;;;17.00;77.90;;;;;;10419714;28;20044;-58
2023/11/13 18:25:45;;;;;;;17.65;9.10;;;16.90;78.10;;;;;;10417550;28;20164;-58
2023/11/13 18:30:46;;;;;;;27.17;11.77;;;16.90;78.00;;;;;;10425530;28;20045;-58
2023/11/13 18:35:48;;;;;;;47.85;23.38;;;16.90;78.20;;;;;;10411907;28;20545;-58
2023/11/13 18:40:49;;;;;;;44.75;23.92;;;16.90;78.10;;;;;;10410221;28;20557;-59
2023/11/13 18:45:51;;;;;;;33.33;16.70;;;16.80;78.30;;;;;;10409377;28;20040;-57
2023/11/13 18:50:52;;;;;;;31.75;16.40;;;16.80;78.00;;;;;;10413708;28;20029;-56
2023/11/13 18:55:53;;;;;;;29.00;15.13;;;16.90;77.80;;;;;;10422486;28;20029;-58
2023/11/13 19:00:54;;;;;;;21.60;12.85;;;16.90;77.80;;;;;;10423446;28;20052;-57
2023/11/13 19:05:58;;;;;;;22.58;13.82;;;16.90;77.60;;;;;;10425321;28;20025;-58
2023/11/13 19:10:59;;;;;;;19.90;11.38;;;17.00;77.70;;;;;;10424327;28;20617;-58
2023/11/13 19:16:00;;;;;;;23.58;12.90;;;17.00;77.70;;;;;;10424610;28;20025;-58
2023/11/13 19:21:01;;;;;;;35.22;13.15;;;16.90;77.70;;;;;;10408571;28;20063;-58
2023/11/13 19:26:03;;;;;;;28.45;13.10;;;16.90;77.80;;;;;;10407317;28;20030;-56
2023/11/13 19:31:04;;;;;;;24.77;12.07;;;16.90;77.70;;;;;;10407883;28;20129;-58
2023/11/13 19:36:05;;;;;;;23.00;12.77;;;17.00;77.60;;;;;;10408668;28;20425;-57
2023/11/13 19:41:06;;;;;;;23.77;11.18;;;17.00;77.40;;;;;;10408171;28;20025;-56
2023/11/13 19:46:08;;;;;;;25.10;12.18;;;17.00;77.40;;;;;;10408724;28;20032;-57
2023/11/13 19:51:09;;;;;;;26.05;11.18;;;17.00;77.30;;;;;;10407875;28;20032;-58
2023/11/13 19:56:10;;;;;;;16.23;10.18;;;17.00;77.10;;;;;;10407396;28;20361;-56
2023/11/13 20:01:10;;;;;;;16.45;10.23;;;17.10;76.90;;;;;;10415631;28;20033;-56
2023/11/13 20:06:12;;;;;;;18.13;10.40;;;17.10;76.80;;;;;;10415960;28;20039;-57
2023/11/13 20:11:13;;;;;;;22.80;10.15;;;17.10;76.80;;;;;;10415481;28;20037;-56
2023/11/13 20:16:13;;;;;;;15.63;9.60;;;17.00;76.60;;;;;;10417686;28;20037;-57
2023/11/13 20:21:14;;;;;;;22.20;9.13;;;17.00;76.70;;;;;;10412254;28;20041;-57
2023/11/13 20:26:15;;;;;;;16.58;9.15;;;17.00;76.90;;;;;;10412126;28;20073;-56
2023/11/13 20:31:16;;;;;;;18.25;9.02;;;17.00;76.90;;;;;;10420671;28;20392;-59
2023/11/13 20:36:17;;;;;;;16.08;8.93;;;16.90;76.90;;;;;;10424432;28;20040;-56
2023/11/13 20:41:17;;;;;;;15.77;9.40;;;16.90;77.00;;;;;;10417720;28;20078;-56
2023/11/13 20:46:19;;;;;;;15.45;9.45;;;16.80;77.00;;;;;;10432519;28;20488;-58
2023/11/13 20:51:19;;;;;;;13.60;8.88;;;16.80;77.00;;;;;;10413793;28;20030;-57
2023/11/13 20:56:22;;;;;;;13.13;8.55;;;16.80;77.10;;;;;;10414482;28;20030;-58
2023/11/13 21:01:25;;;;;;;14.27;7.60;;;16.70;77.10;;;;;;10412540;28;20044;-57
2023/11/13 21:06:31;;;;;;;14.73;7.95;;;16.70;77.20;;;;;;10404668;28;20040;-58
2023/11/13 21:11:31;;;;;;;14.13;8.65;;;16.70;77.10;;;;;;10412384;28;20036;-57
2023/11/13 21:16:32;;;;;;;10.48;6.68;;;16.70;77.10;;;;;;10414242;28;20025;-58
2023/11/13 21:21:35;;;;;;;14.05;7.25;;;16.70;77.10;;;;;;10420261;28;20040;-57
2023/11/13 21:26:36;;;;;;;15.25;7.50;;;16.60;77.00;;;;;;10413420;28;20052;-58
2023/11/13 21:31:37;;;;;;;12.07;6.30;;;16.60;77.00;;;;;;10412684;28;20052;-58
2023/11/13 21:36:38;;;;;;;9.00;6.15;;;16.60;76.80;;;;;;10431713;28;20017;-57
2023/11/13 21:41:39;;;;;;;12.20;6.57;;;16.50;76.90;;;;;;10429972;28;20358;-57
2023/11/13 21:46:39;;;;;;;10.73;5.72;;;16.60;77.00;;;;;;10424792;28;20030;-57
2023/11/13 21:51:40;;;;;;;12.52;6.00;;;16.60;77.10;;;;;;10427714;28;20370;-57
2023/11/13 21:56:41;;;;;;;13.38;6.47;;;16.60;77.70;;;;;;10415143;28;20029;-57
2023/11/13 22:01:41;;;;;;;11.40;6.05;;;16.50;77.00;;;;;;10410564;28;20055;-57
2023/11/13 22:06:42;;;;;;;11.60;6.28;;;16.50;77.10;;;;;;10412367;28;20092;-57
2023/11/13 22:11:43;;;;;;;13.50;5.53;;;16.50;77.10;;;;;;10410396;28;20029;-57
2023/11/13 22:16:43;;;;;;;11.80;7.10;;;16.50;77.10;;;;;;10411047;28;20029;-57
2023/11/13 22:21:46;;;;;;;13.18;5.75;;;16.50;77.10;;;;;;10410534;28;20030;-58
2023/11/13 22:26:47;;;;;;;10.05;5.60;;;16.50;77.20;;;;;;10410509;28;20087;-58
2023/11/13 22:31:47;;;;;;;8.20;5.25;;;16.40;77.10;;;;;;10410691;28;20045;-56
2023/11/13 22:36:48;;;;;;;10.27;4.93;;;16.40;77.20;;;;;;10410141;28;20575;-58
2023/11/13 22:41:49;;;;;;;9.30;4.60;;;16.40;77.20;;;;;;10410719;28;20370;-57
2023/11/13 22:46:50;;;;;;;13.25;5.90;;;16.40;77.20;;;;;;10410231;28;20040;-57
2023/11/13 22:51:51;;;;;;;10.98;5.38;;;16.40;77.10;;;;;;10410049;28;20038;-57
2023/11/13 22:56:51;;;;;;;11.93;5.50;;;16.40;77.10;;;;;;10409704;28;20032;-57
2023/11/13 23:01:52;;;;;;;9.98;5.80;;;16.40;77.20;;;;;;10409741;28;20707;-58
2023/11/13 23:06:55;;;;;;;12.05;5.07;;;16.40;77.20;;;;;;10409360;28;20438;-58
2023/11/13 23:11:55;;;;;;;12.32;5.65;;;16.30;77.20;;;;;;10409130;28;20041;-58
2023/11/13 23:16:56;;;;;;;11.52;5.88;;;16.30;77.20;;;;;;10409123;28;20576;-57
2023/11/13 23:21:57;;;;;;;9.32;5.18;;;16.30;77.20;;;;;;10407962;28;20037;-57
2023/11/13 23:26:59;;;;;;;10.65;5.85;;;16.30;77.20;;;;;;10408733;28;20132;-58
2023/11/13 23:32:00;;;;;;;8.18;4.30;;;16.30;77.20;;;;;;10408563;28;20576;-58
2023/11/13 23:37:01;;;;;;;7.95;4.47;;;16.30;77.30;;;;;;10408593;28;20036;-58
2023/11/13 23:42:03;;;;;;;8.23;4.72;;;16.30;77.30;;;;;;10409114;28;20115;-58
2023/11/13 23:47:07;;;;;;;10.65;6.07;;;16.30;77.40;;;;;;10408534;28;20113;-58
2023/11/13 23:52:08;;;;;;;9.18;4.55;;;16.20;77.30;;;;;;10408761;28;20033;-58
2023/11/13 23:57:10;;;;;;;11.75;4.88;;;16.20;77.30;;;;;;10408327;28;20033;-58
